メインページ
METAR-TAF:

METAR-TAF

空港 :

サムスン, トルコ

緯度: 41-15-15N, 経度: 036-34-03E, 海抜: 5m

現時点の気象観測

当レポートは1時間7分前の20:50(UTC)に作成
西の風 10kt
気温 5°C
湿度 81%
気圧 1033 hPa
視程10km以上
高度1500ftの雲は散在している
高度2800ftの千切れ雲あり
高度8000ftの曇り

METAR: LTFH 202050Z 28010KT 9999 SCT015 BKN028 OVC080 05/02 Q1033 NOSIG

時間: 00:57 (21:57 UTC)

予報

当レポートは2時間17分前の19:40(UTC)に作成
予報は20日の 21時(UTC)から 21日の 06時(UTC)まで有効
北西の風 17kt
視程: 8000m
高度1200ftの雲は散在している
高度2800ftの千切れ雲あり
高度8000ftの曇り
小雨

TAF: LTFH 201940Z 2021/2106 31017KT 8000 -RA SCT012 BKN028 OVC080

4,000以上の空港の気象観測と天気予報(METAR報とTAF報)

利用可能な観測所は地図上に黄色い丸と赤い丸で示す。

丸の上にカーソルを重ねると観測所名を参照できる。

次にクリックすると気象観測と天気予報を参照できる。

マップの切り替え:黒色「×」印の緑ボタンをクリックして拡大、「-」印の緑ボタンをクリックして縮小、緑色の三角印をクリックして隣りの地図に切り替え


METAR-TAF: